createdAt,value
2018-06-13T00:01:17.938Z,5.25
2018-06-13T00:03:46.647Z,4.87
2018-06-13T00:08:50.908Z,5.45
2018-06-13T00:11:19.306Z,5.28
2018-06-13T00:13:47.228Z,4.92
2018-06-13T00:16:15.605Z,5.10
2018-06-13T00:18:43.862Z,5.45
2018-06-13T00:21:12.311Z,5.28
2018-06-13T00:23:41.090Z,6.00
2018-06-13T00:26:09.193Z,4.97
2018-06-13T00:28:37.277Z,4.83
2018-06-13T00:31:05.463Z,5.25
2018-06-13T00:33:33.876Z,5.00
2018-06-13T00:36:01.937Z,5.60
2018-06-13T00:38:30.174Z,5.00
2018-06-13T00:40:58.244Z,5.35
2018-06-13T00:43:26.673Z,5.95
2018-06-13T00:45:54.953Z,5.62
2018-06-13T00:48:23.238Z,5.90
2018-06-13T00:50:51.256Z,5.92
2018-06-13T00:53:19.630Z,5.22
2018-06-13T00:55:58.894Z,6.00
2018-06-13T00:58:26.980Z,6.30
2018-06-13T01:00:54.980Z,5.33
2018-06-13T01:03:23.251Z,5.80
2018-06-13T01:05:51.655Z,4.95
2018-06-13T01:08:20.907Z,5.67
2018-06-13T01:10:49.280Z,5.87
2018-06-13T01:13:17.276Z,6.15
2018-06-13T01:15:45.788Z,5.25
2018-06-13T01:18:14.059Z,5.95
2018-06-13T01:20:42.470Z,5.25
2018-06-13T01:23:10.542Z,5.80
2018-06-13T01:25:38.849Z,6.55
2018-06-13T01:28:07.191Z,6.08
2018-06-13T01:30:35.121Z,5.90
2018-06-13T01:33:03.447Z,5.58
2018-06-13T01:35:31.651Z,5.83
2018-06-13T01:38:00.665Z,6.22
2018-06-13T01:40:28.861Z,5.45
2018-06-13T01:42:57.241Z,5.90
2018-06-13T01:45:25.347Z,5.72
2018-06-13T01:47:53.753Z,6.20
2018-06-13T01:50:22.133Z,5.87
2018-06-13T01:52:50.521Z,6.60
2018-06-13T01:55:18.929Z,5.72
2018-06-13T01:57:47.232Z,6.80
2018-06-13T02:00:15.316Z,5.35
2018-06-13T02:02:43.613Z,5.50
2018-06-13T02:05:12.854Z,6.15
2018-06-13T02:07:42.366Z,6.28
2018-06-13T02:10:10.364Z,5.80
2018-06-13T02:12:38.258Z,5.85
2018-06-13T02:15:06.439Z,5.70
2018-06-13T02:17:34.321Z,5.65
2018-06-13T02:20:02.720Z,6.05
2018-06-13T02:22:31.928Z,5.87
2018-06-13T02:25:00.338Z,6.80
2018-06-13T02:27:29.370Z,5.92
2018-06-13T02:29:57.755Z,6.25
2018-06-13T02:32:25.854Z,5.83
2018-06-13T02:34:54.127Z,6.70
2018-06-13T02:37:22.350Z,6.15
2018-06-13T02:39:50.431Z,6.20
2018-06-13T02:42:18.419Z,6.10
2018-06-13T02:44:46.419Z,6.25
2018-06-13T02:47:14.390Z,6.22
2018-06-13T02:49:42.925Z,5.70
2018-06-13T02:52:11.093Z,6.40
2018-06-13T02:54:39.277Z,6.58
2018-06-13T02:57:07.497Z,6.97
2018-06-13T02:59:35.571Z,5.90
2018-06-13T03:02:04.002Z,6.05
2018-06-13T03:04:32.280Z,5.78
2018-06-13T03:07:01.085Z,6.28
2018-06-13T03:09:30.062Z,6.40
2018-06-13T03:11:58.275Z,7.22
2018-06-13T03:14:26.685Z,6.08
2018-06-13T03:16:54.997Z,6.15
2018-06-13T03:19:22.991Z,6.10
2018-06-13T03:21:51.197Z,5.90
2018-06-13T03:24:20.066Z,6.55
2018-06-13T03:26:48.370Z,6.35
2018-06-13T03:29:16.677Z,6.22
2018-06-13T03:31:44.898Z,6.17
2018-06-13T03:34:13.075Z,6.25
2018-06-13T03:36:41.160Z,5.80
2018-06-13T03:39:09.570Z,6.12
2018-06-13T03:41:37.854Z,6.08
2018-06-13T03:44:06.304Z,5.80
2018-06-13T03:46:35.172Z,5.33
2018-06-13T03:49:03.242Z,6.00
2018-06-13T03:51:31.451Z,6.17
2018-06-13T03:53:59.765Z,6.05
2018-06-13T03:56:27.853Z,5.20
2018-06-13T03:58:56.374Z,5.87
2018-06-13T04:01:24.648Z,5.10
2018-06-13T04:03:52.948Z,5.83
2018-06-13T04:06:21.885Z,5.55
2018-06-13T04:08:50.118Z,6.53
2018-06-13T04:11:18.463Z,6.05
2018-06-13T04:13:46.481Z,5.72
2018-06-13T04:16:14.850Z,5.60
2018-06-13T04:18:43.141Z,6.33
2018-06-13T04:21:11.253Z,6.12
2018-06-13T04:23:39.535Z,6.03
2018-06-13T04:26:07.810Z,6.58
2018-06-13T04:28:36.268Z,5.85
2018-06-13T04:31:04.646Z,6.10
2018-06-13T04:33:33.195Z,5.50
2018-06-13T04:36:01.466Z,5.90
2018-06-13T04:38:30.151Z,5.60
2018-06-13T04:40:58.638Z,6.12
2018-06-13T04:43:27.335Z,5.83
2018-06-13T04:45:55.743Z,5.50
2018-06-13T04:48:23.631Z,5.62
2018-06-13T04:50:51.712Z,5.28
2018-06-13T04:53:20.070Z,5.30
2018-06-13T04:55:48.330Z,5.35
2018-06-13T04:58:17.051Z,7.58
2018-06-13T05:00:45.322Z,5.05
2018-06-13T05:03:13.644Z,5.05
2018-06-13T05:05:42.095Z,5.78
2018-06-13T05:08:10.348Z,5.05
2018-06-13T05:10:38.714Z,5.30
2018-06-13T05:13:07.032Z,5.28
2018-06-13T05:15:35.224Z,5.30
2018-06-13T05:18:03.794Z,4.75
2018-06-13T05:20:32.028Z,5.00
2018-06-13T05:23:00.318Z,5.00
2018-06-13T05:25:28.282Z,4.83
2018-06-13T05:27:56.611Z,4.62
2018-06-13T05:30:25.151Z,4.58
2018-06-13T05:32:53.499Z,4.35
2018-06-13T05:35:21.605Z,3.87
2018-06-13T05:37:49.984Z,4.67
2018-06-13T05:40:18.386Z,4.53
2018-06-13T05:42:47.279Z,4.55
2018-06-13T05:45:15.629Z,5.17
2018-06-13T05:47:44.131Z,4.85
2018-06-13T05:50:13.037Z,4.90
2018-06-13T05:52:41.322Z,3.75
2018-06-13T05:55:09.618Z,4.15
2018-06-13T05:57:38.318Z,4.10
2018-06-13T06:00:06.852Z,3.90
2018-06-13T06:02:35.200Z,3.72
2018-06-13T06:05:03.811Z,4.37
2018-06-13T06:07:32.235Z,10.78
2018-06-13T06:10:00.621Z,9.90
2018-06-13T06:12:30.055Z,6.62
2018-06-13T06:14:58.329Z,5.67
2018-06-13T06:17:27.388Z,5.15
2018-06-13T06:19:55.646Z,4.72
2018-06-13T06:22:23.961Z,4.17
2018-06-13T06:24:52.149Z,3.70
2018-06-13T06:27:20.035Z,4.40
2018-06-13T06:29:48.139Z,3.92
2018-06-13T06:32:16.536Z,3.80
2018-06-13T06:34:44.810Z,4.08
2018-06-13T06:37:13.034Z,4.58
2018-06-13T06:39:41.350Z,4.10
2018-06-13T06:42:09.629Z,4.30
2018-06-13T06:44:38.024Z,4.22
2018-06-13T06:47:06.325Z,4.30
2018-06-13T06:49:34.823Z,4.33
2018-06-13T06:52:03.430Z,3.92
2018-06-13T06:54:31.818Z,3.90
2018-06-13T06:56:59.894Z,3.70
2018-06-13T06:59:28.295Z,4.80
2018-06-13T07:01:56.820Z,4.30
2018-06-13T07:04:25.136Z,4.47
2018-06-13T07:06:53.505Z,3.72
2018-06-13T07:09:21.567Z,3.85
2018-06-13T07:11:50.434Z,4.92
2018-06-13T07:14:19.413Z,5.05
2018-06-13T07:16:47.428Z,4.70
2018-06-13T07:19:15.822Z,4.30
2018-06-13T07:21:43.973Z,21.97
2018-06-13T07:24:12.295Z,47.40
2018-06-13T07:26:40.285Z,18.60
2018-06-13T07:29:08.527Z,6.12
2018-06-13T07:31:37.278Z,10.10
2018-06-13T07:34:05.702Z,8.10
2018-06-13T07:36:33.776Z,6.33
2018-06-13T07:39:02.228Z,5.33
2018-06-13T07:41:30.648Z,3.95
2018-06-13T07:43:59.001Z,4.33
2018-06-13T07:46:27.259Z,4.60
2018-06-13T07:48:55.589Z,4.30
2018-06-13T07:51:23.779Z,4.80
2018-06-13T07:53:52.365Z,4.53
2018-06-13T07:56:20.628Z,5.15
2018-06-13T07:58:48.780Z,6.67
2018-06-13T08:01:16.857Z,5.25
2018-06-13T08:03:45.182Z,7.55
2018-06-13T08:06:13.583Z,4.50
2018-06-13T08:08:41.812Z,4.40
2018-06-13T08:11:10.313Z,4.28
2018-06-13T08:13:38.716Z,4.40
2018-06-13T08:16:06.958Z,5.00
2018-06-13T08:18:35.352Z,4.72
2018-06-13T08:21:03.429Z,4.17
2018-06-13T08:23:31.640Z,4.75
2018-06-13T08:25:59.852Z,4.55
2018-06-13T08:28:28.750Z,4.33
2018-06-13T08:30:57.545Z,4.08
2018-06-13T08:33:25.813Z,4.42
2018-06-13T08:35:53.965Z,3.80
2018-06-13T08:38:22.125Z,4.53
2018-06-13T08:40:50.670Z,4.45
2018-06-13T08:43:18.936Z,4.75
2018-06-13T08:45:47.150Z,4.70
2018-06-13T08:48:15.576Z,5.05
2018-06-13T08:50:43.827Z,4.37
2018-06-13T08:53:11.929Z,4.80
2018-06-13T08:55:40.243Z,4.70
2018-06-13T08:58:08.841Z,4.83
2018-06-13T09:00:37.445Z,4.65
2018-06-13T09:03:05.881Z,3.90
2018-06-13T09:05:34.032Z,5.30
2018-06-13T09:08:02.188Z,4.65
2018-06-13T09:10:30.518Z,4.28
2018-06-13T09:12:58.610Z,4.20
2018-06-13T09:15:26.515Z,4.37
2018-06-13T09:17:54.581Z,4.28
2018-06-13T09:20:22.673Z,5.67
2018-06-13T09:22:51.277Z,4.50
2018-06-13T09:25:19.911Z,4.80
2018-06-13T09:27:48.280Z,4.65
2018-06-13T09:30:16.698Z,4.25
2018-06-13T09:32:45.611Z,3.45
2018-06-13T09:35:13.703Z,3.50
2018-06-13T09:37:42.269Z,2.90
2018-06-13T09:40:10.629Z,3.33
2018-06-13T09:42:39.109Z,3.00
2018-06-13T09:45:07.092Z,2.58
2018-06-13T09:47:35.930Z,2.25
2018-06-13T09:50:04.297Z,2.83
2018-06-13T09:52:33.324Z,2.65
2018-06-13T09:55:01.932Z,2.60
2018-06-13T09:57:30.430Z,3.98
2018-06-13T10:00:04.272Z,3.60
2018-06-13T10:02:35.728Z,4.25
2018-06-13T10:05:04.934Z,4.15
2018-06-13T10:07:33.713Z,3.50
2018-06-13T10:10:02.039Z,3.05
2018-06-13T10:12:30.763Z,2.92
2018-06-13T10:14:59.089Z,2.50
2018-06-13T10:17:27.432Z,2.75
2018-06-13T10:19:55.539Z,2.90
2018-06-13T10:22:23.924Z,3.08
2018-06-13T10:24:52.033Z,3.20
2018-06-13T10:27:25.760Z,3.30
2018-06-13T10:29:53.999Z,3.55
2018-06-13T10:32:22.843Z,3.20
2018-06-13T10:34:51.358Z,3.50
2018-06-13T10:37:19.618Z,4.50
2018-06-13T10:39:48.573Z,4.20
2018-06-13T10:42:19.909Z,4.30
2018-06-13T10:44:49.113Z,4.95
2018-06-13T10:47:17.422Z,4.35
2018-06-13T10:49:45.639Z,4.33
2018-06-13T10:52:14.012Z,4.50
2018-06-13T10:54:42.420Z,5.62
2018-06-13T10:57:10.532Z,5.47
2018-06-13T10:59:39.365Z,6.03
2018-06-13T11:02:09.893Z,7.60
2018-06-13T11:04:38.141Z,7.22
2018-06-13T11:07:06.277Z,6.75
2018-06-13T11:09:34.465Z,7.30
2018-06-13T11:12:03.368Z,7.83
2018-06-13T11:14:31.680Z,6.80
2018-06-13T11:17:00.364Z,6.67
2018-06-13T11:19:28.684Z,7.53
2018-06-13T11:21:56.867Z,10.40
2018-06-13T11:24:24.972Z,8.70
2018-06-13T11:26:54.393Z,8.73
2018-06-13T11:29:22.753Z,10.63
2018-06-13T11:31:51.273Z,9.75
2018-06-13T11:34:19.593Z,7.70
2018-06-13T11:36:47.928Z,8.03
2018-06-13T11:39:16.302Z,7.50
2018-06-13T11:41:44.507Z,8.45
2018-06-13T11:44:12.763Z,8.60
2018-06-13T11:46:40.773Z,8.18
2018-06-13T11:49:09.085Z,8.45
2018-06-13T11:51:37.571Z,8.70
2018-06-13T11:54:05.858Z,8.40
2018-06-13T11:56:34.258Z,8.10
2018-06-13T11:59:02.338Z,9.08
2018-06-13T12:01:30.737Z,8.48
2018-06-13T12:04:00.059Z,9.67
2018-06-13T12:06:28.279Z,8.47
2018-06-13T12:08:56.549Z,9.15
2018-06-13T12:11:24.819Z,9.90
2018-06-13T12:13:53.377Z,10.20
2018-06-13T12:16:21.711Z,10.05
2018-06-13T12:18:49.927Z,9.00
2018-06-13T12:21:18.153Z,8.93
2018-06-13T12:23:46.262Z,9.90
2018-06-13T12:26:14.527Z,9.85
2018-06-13T12:28:42.881Z,9.63
2018-06-13T12:31:11.970Z,10.25
2018-06-13T12:33:40.361Z,10.35
2018-06-13T12:36:08.651Z,8.73
2018-06-13T12:38:36.659Z,7.28
2018-06-13T12:41:05.036Z,7.40
2018-06-13T12:43:33.319Z,6.83
2018-06-13T12:46:01.733Z,7.50
2018-06-13T12:48:30.823Z,6.40
2018-06-13T12:50:59.062Z,6.42
2018-06-13T12:53:27.461Z,6.28
2018-06-13T12:55:55.645Z,6.03
2018-06-13T12:58:24.578Z,6.40
2018-06-13T13:00:52.970Z,6.60
2018-06-13T13:03:21.251Z,6.50
2018-06-13T13:05:49.462Z,6.78
2018-06-13T13:08:18.545Z,7.08
2018-06-13T13:10:46.829Z,7.05
2018-06-13T13:13:15.180Z,6.60
2018-06-13T13:15:43.582Z,6.87
2018-06-13T13:18:12.165Z,7.30
2018-06-13T13:20:40.826Z,6.60
2018-06-13T13:23:09.280Z,5.90
2018-06-13T13:25:37.627Z,6.05
2018-06-13T13:28:06.727Z,6.05
2018-06-13T13:30:34.765Z,6.55
2018-06-13T13:33:02.619Z,6.53
2018-06-13T13:35:31.993Z,6.30
2018-06-13T13:38:00.495Z,6.35
2018-06-13T13:40:29.284Z,6.65
2018-06-13T13:42:57.499Z,6.60
2018-06-13T13:45:26.456Z,7.15
2018-06-13T13:47:54.724Z,6.78
2018-06-13T13:50:23.203Z,6.42
2018-06-13T13:52:51.593Z,6.35
2018-06-13T13:55:19.805Z,6.22
2018-06-13T13:57:48.410Z,6.45
2018-06-13T14:00:16.710Z,5.33
2018-06-13T14:02:45.945Z,4.62
2018-06-13T14:05:17.360Z,4.65
2018-06-13T14:07:45.894Z,4.80
2018-06-13T14:10:14.483Z,5.05
2018-06-13T14:12:42.718Z,4.97
2018-06-13T14:15:11.738Z,4.40
2018-06-13T14:17:40.309Z,4.60
2018-06-13T14:20:10.183Z,5.70
2018-06-13T14:22:38.697Z,33.78
2018-06-13T14:25:07.760Z,11.78
2018-06-13T14:27:36.056Z,26.93
2018-06-13T14:30:05.220Z,16.15
2018-06-13T14:32:33.160Z,12.53
2018-06-13T14:35:02.164Z,6.53
2018-06-13T14:37:30.339Z,7.08
2018-06-13T14:39:58.905Z,6.50
2018-06-13T14:42:32.391Z,4.70
2018-06-13T14:45:01.176Z,5.35
2018-06-13T14:47:29.625Z,6.20
2018-06-13T14:49:57.872Z,5.85
2018-06-13T14:52:26.003Z,6.08
2018-06-13T14:54:54.387Z,5.70
2018-06-13T14:57:22.761Z,6.28
2018-06-13T14:59:51.159Z,7.75
2018-06-13T15:02:19.283Z,14.55
2018-06-13T15:04:48.188Z,34.08
2018-06-13T15:07:19.498Z,10.82
2018-06-13T15:09:49.516Z,6.28
2018-06-13T15:12:17.849Z,7.08
2018-06-13T15:14:46.331Z,7.00
2018-06-13T15:17:16.206Z,7.50
2018-06-13T15:19:45.130Z,7.33
2018-06-13T15:22:14.236Z,6.65
2018-06-13T15:24:42.751Z,7.60
2018-06-13T15:27:11.794Z,5.92
2018-06-13T15:29:43.741Z,5.17
2018-06-13T15:32:12.158Z,5.35
2018-06-13T15:34:40.771Z,4.72
2018-06-13T15:37:09.653Z,4.00
2018-06-13T15:39:39.022Z,4.42
2018-06-13T15:42:07.469Z,4.22
2018-06-13T15:44:35.768Z,4.15
2018-06-13T15:47:04.362Z,3.52
2018-06-13T15:49:32.361Z,3.47
2018-06-13T15:52:00.428Z,3.90
2018-06-13T15:54:28.964Z,4.20
2018-06-13T15:56:57.868Z,4.25
2018-06-13T15:59:26.393Z,4.00
2018-06-13T16:01:54.823Z,4.35
2018-06-13T16:07:36.840Z,4.12
2018-06-13T16:10:25.440Z,3.72
2018-06-13T16:12:53.951Z,3.50
2018-06-13T16:15:22.417Z,4.95
2018-06-13T16:17:51.372Z,3.90
2018-06-13T16:20:19.643Z,4.40
2018-06-13T16:22:47.845Z,4.25
2018-06-13T16:25:16.235Z,4.37
2018-06-13T16:27:44.760Z,5.10
2018-06-13T16:30:13.036Z,5.62
2018-06-13T16:32:41.398Z,5.00
2018-06-13T16:35:10.228Z,5.80
2018-06-13T16:37:41.914Z,5.50
2018-06-13T16:40:10.414Z,5.20
2018-06-13T16:42:38.837Z,5.20
2018-06-13T16:45:08.138Z,5.20
2018-06-13T16:47:37.531Z,5.87
2018-06-13T16:50:16.805Z,5.70
2018-06-13T16:54:00.272Z,5.80
2018-06-13T16:56:28.775Z,5.65
2018-06-13T16:58:57.277Z,5.45
2018-06-13T17:01:25.602Z,5.70
2018-06-13T17:03:54.290Z,5.40
2018-06-13T17:06:23.147Z,9.67
2018-06-13T17:08:52.312Z,7.67
2018-06-13T17:11:20.907Z,6.33
2018-06-13T17:13:49.305Z,6.90
2018-06-13T17:16:37.245Z,9.23
2018-06-13T17:19:05.652Z,13.40
2018-06-13T17:24:17.355Z,11.70
2018-06-13T17:27:14.919Z,9.70
2018-06-13T17:30:24.350Z,9.40
2018-06-13T17:32:52.750Z,9.15
2018-06-13T17:41:11.139Z,9.50
2018-06-13T17:50:24.004Z,9.03
2018-06-13T17:56:18.140Z,13.25
2018-06-13T17:58:46.537Z,14.20
2018-06-13T18:01:18.788Z,16.30
2018-06-13T18:30:46.160Z,14.13
2018-06-13T18:42:05.437Z,14.60
2018-06-13T18:44:35.411Z,14.33
2018-06-13T18:47:05.207Z,15.30
2018-06-13T18:49:33.311Z,14.78
2018-06-13T18:52:03.765Z,14.47
2018-06-13T18:54:32.133Z,17.32
2018-06-13T18:58:10.441Z,18.82
2018-06-13T19:02:11.275Z,15.03
2018-06-13T19:04:40.612Z,15.20
2018-06-13T19:07:15.865Z,14.75
2018-06-13T19:09:43.987Z,16.00
2018-06-13T19:12:22.456Z,15.08
2018-06-13T19:15:15.311Z,15.05
2018-06-13T19:32:01.363Z,16.10
2018-06-13T19:34:29.330Z,16.10
2018-06-13T19:55:17.984Z,16.73
2018-06-13T19:57:46.619Z,15.72
2018-06-13T20:00:15.343Z,15.98
2018-06-13T20:02:49.327Z,15.78
2018-06-13T20:05:28.984Z,16.17
2018-06-13T20:08:22.284Z,16.37
2018-06-13T20:51:08.546Z,14.70
2018-06-13T20:57:15.574Z,15.95
2018-06-13T21:00:41.948Z,15.30
2018-06-13T21:08:19.908Z,15.50
2018-06-13T21:11:13.196Z,15.70
2018-06-13T21:31:51.879Z,14.95
2018-06-13T21:34:20.614Z,14.70
2018-06-13T21:37:08.289Z,15.40
2018-06-13T21:39:44.564Z,15.55
2018-06-13T21:42:20.420Z,15.55
2018-06-13T21:58:23.506Z,15.00
2018-06-13T22:01:00.714Z,15.23
2018-06-13T22:03:33.964Z,15.15
2018-06-13T22:09:33.233Z,14.87
2018-06-13T22:21:23.009Z,14.60
2018-06-13T22:24:00.361Z,14.18
2018-06-13T22:26:31.020Z,14.10
2018-06-13T22:29:01.788Z,14.85
2018-06-13T22:37:22.629Z,14.40
